Order Tray | Contact Us | Home | SIG Lists

[aprssig] Garmin GPS35

N0YXV - Stan Coleman n0yxv at gihams.org
Thu Sep 29 01:32:55 UTC 2005


Here is the latest output from the Garmin GPS35 with ALL the sentences
turned on. According to the manual the $PGRMT sentence is telling me
that the board temp is 16 degrees. Now we have a frost warning in effect
for 4AM tomorrow morning so I know it's cold but 16 degrees would be a
slight exaggeration. Looks to me like I now am the proud owner of a
hockey puck. Actually somebody earlier in this thread mentioned that
they sent their unit into Garmin and got it repaired. Wish I could
remember who said that because I'd ask them about what it cost to fix.
Sometimes it's only a couple of dollars more to buy a new unit....don't
know about Garmin GPS's though.

$GPRMC,005520,V,0000.0000,N,00000.0000,W,000.0,000.0,290905,007.2,W,N*03
$PGRMT,GPS 25-HVS VER 2.50 ,P,P,R,R,P,,16,R*0E
$GPGGA,005520,0000.0000,N,00000.0000,W,0,00,,,M,,M,,*4D
$GPGSA,A,1,,,,,,,,,,,,,,,*1E
$GPGSV,3,1,11,02,00,249,49,04,00,280,51,06,00,151,,07,00,322,50*73
$GPGSV,3,2,11,08,00,243,38,09,00,347,51,24,00,311,50,26,00,240,*71
$GPGSV,3,3,11,28,09,293,50,29,00,228,,30,00,071,,,,,*41
$PGRMV,,,*72
$PGRME,,,,,,*4D
$GPVTG,,T,,M,,N,,K,N*2C
$PGRMF,,,,,,,,,,A,0,,,,*13
$LCGLL,,,,,005520,V,N
$LCVTG,,T,,M,,N,,K,N
$PGRMB,-1.0,0,-1,0,,K*1F
$GPRMC,005522,V,0000.0000,N,00000.0000,W,000.0,000.0,290905,007.2,W,N*01
$GPGGA,005522,0000.0000,N,00000.0000,W,0,00,,,M,,M,,*4F
$GPGSA,A,1,,,,,,,,,,,,,,,*1E
$GPGSV,3,1,10,02,00,249,48,04,00,280,51,06,00,151,,07,00,322,50*73
$GPGSV,3,2,10,08,00,243,37,09,00,347,51,24,00,311,50,28,09,293,50*73
$GPGSV,3,3,10,29,00,228,,30,00,071,,,,,,,,,*7E
$PGRMV,,,*72
$PGRME,,,,,,*4D
$GPVTG,,T,,M,,N,,K,N*2C
$PGRMF,,,,,,,,,,A,0,,,,*13
$LCGLL,,,,,005522,V,N
$LCVTG,,T,,M,,N,,K,N
$PGRMB,-1.0,0,-1,0,,K*1F
$GPRMC,005524,V,0000.0000,N,00000.0000,W,000.0,000.0,290905,007.2,W,N*07
$GPGGA,005524,0000.0000,N,00000.0000,W,0,00,,,M,,M,,*49
$GPGSA,A,1,,,,,,,,,,,,,,,*1E
$GPGSV,3,1,11,02,00,249,48,04,00,280,51,06,00,151,,07,00,322,50*72
$GPGSV,3,2,11,08,00,243,37,09,00,347,51,10,00,204,,24,00,311,50*7B
$GPGSV,3,3,11,28,09,293,50,29,00,228,,30,00,071,,,,,*41
$PGRMV,,,*72
$PGRME,,,,,,*4D
$GPVTG,,T,,M,,N,,K,N*2C
$PGRMF,,,,,,,,,,A,0,,,,*13
$LCGLL,,,,,005524,V,N
$LCVTG,,T,,M,,N,,K,N
$PGRMB,-1.0,0,-1,0,,K*1F
$GPRMC,005526,V,0000.0000,N,00000.0000,W,000.0,000.0,290905,007.2,W,N*05
$GPGGA,005526,0000.0000,N,00000.0000,W,0,00,,,M,,M,,*4B
$GPGSA,A,1,,,,,,,,,,,,,,,*1E
$GPGSV,3,1,11,02,00,249,48,04,00,280,51,06,00,151,,07,00,322,50*72
$GPGSV,3,2,11,08,00,243,37,09,00,347,51,10,00,204,,24,00,311,50*7B
$GPGSV,3,3,11,28,09,293,50,29,00,228,,30,00,071,,,,,*41
$PGRMV,,,*72
$PGRME,,,,,,*4D
$GPVTG,,T,,M,,N,,K,N*2C
$PGRMF,,,,,,,,,,A,0,,,,*13
$LCGLL,,,,,005526,V,N
$LCVTG,,T,,M,,N,,K,N
$PGRMB,-1.0,0,-1,0,,K*1F
$GPRMC,005528,V,0000.0000,N,00000.0000,W,000.0,000.0,290905,007.2,W,N*0B
$GPGGA,005528,0000.0000,N,00000.0000,W,0,00,,,M,,M,,*45
$GPGSA,A,1,,,,,,,,,,,,,,,*1E
$GPGSV,3,1,11,02,00,249,49,04,00,280,51,06,00,151,,07,00,322,50*73
$GPGSV,3,2,11,08,00,243,37,09,00,347,52,10,00,204,,24,00,311,50*78
$GPGSV,3,3,11,28,09,293,50,29,00,228,,30,00,071,,,,,*41
$PGRMV,,,*72
$PGRME,,,,,,*4D
$GPVTG,,T,,M,,N,,K,N*2C
$PGRMF,,,,,,,,,,A,0,,,,*13
$LCGLL,,,,,005528,V,N
$LCVTG,,T,,M,,N,,K,N
$PGRMB,-1.0,0,-1,0,,K*1F
$GPRMC,005530,V,0000.0000,N,00000.0000,W,000.0,000.0,290905,007.2,W,N*02
$GPGGA,005530,0000.0000,N,00000.0000,W,0,00,,,M,,M,,*4C
$GPGSA,A,1,,,,,,,,,,,,,,,*1E
$GPGSV,3,1,11,02,00,249,49,04,00,280,51,06,00,151,,07,00,322,50*73
$GPGSV,3,2,11,08,00,243,37,09,00,347,52,10,00,204,,24,00,311,50*78
$GPGSV,3,3,11,28,09,293,50,29,00,228,,30,00,071,,,,,*41
$PGRMV,,,*72
$PGRME,,,,,,*4D
$GPVTG,,T,,M,,N,,K,N*2C
$PGRMF,,,,,,,,,,A,0,,,,*13
$LCGLL,,,,,005530,V,N
$LCVTG,,T,,M,,N,,K,N
$PGRMB,-1.0,0,-1,0,,K*1F
$GPRMC,005532,V,0000.0000,N,00000.0000,W,000.0,000.0,290905,007.2,W,N*00
$GPGGA,005532,0000.0000,N,00000.0000,W,0,00,,,M,,M,,*4E
$GPGSA,A,1,,,,,,,,,,,,,,,*1E
$GPGSV,3,1,11,02,00,250,49,04,00,280,51,06,00,151,,07,00,322,50*7B
$GPGSV,3,2,11,08,00,243,37,09,00,347,52,10,00,204,,24,00,311,50*78
$GPGSV,3,3,11,28,09,293,50,29,00,228,,30,00,071,,,,,*41
$PGRMV,,,*72
$PGRME,,,,,,*4D
$GPVTG,,T,,M,,N,,K,N*2C
$PGRMF,,,,,,,,,,A,0,,,,*13
$LCGLL,,,,,005532,V,N
$LCVTG,,T,,M,,N,,K,N
$PGRMB,-1.0,0,-1,0,,K*1F
$GPRMC,005534,V,0000.0000,N,00000.0000,W,000.0,000.0,290905,007.2,W,N*06
$GPGGA,005534,0000.0000,N,00000.0000,W,0,00,,,M,,M,,*48
$GPGSA,A,1,,,,,,,,,,,,,,,*1E
$GPGSV,3,1,11,02,00,250,49,04,00,280,51,06,00,151,,07,00,322,50*7B
$GPGSV,3,2,11,08,00,243,37,09,00,347,52,10,00,204,,24,00,311,50*78
$GPGSV,3,3,11,28,09,293,50,29,00,228,,30,00,071,,,,,*41
$PGRMV,,,*72
$PGRME,,,,,,*4D
$GPVTG,,T,,M,,N,,K,N*2C
$PGRMF,,,,,,,,,,A,0,,,,*13
$LCGLL,,,,,005534,V,N
$LCVTG,,T,,M,,N,,K,N
$PGRMB,-1.0,0,-1,0,,K*1F
$GPRMC,005536,V,0000.0000,N,00000.0000,W,000.0,000.0,290905,007.2,W,N*04
$GPGGA,005536,0000.0000,N,00000.0000,W,0,00,,,M,,M,,*4A
$GPGSA,A,1,,,,,,,,,,,,,,,*1E
$GPGSV,3,1,11,02,00,250,49,04,00,280,51,06,00,151,,07,00,322,50*7B
$GPGSV,3,2,11,08,00,243,37,09,00,347,52,10,00,204,,24,00,311,50*78
$GPGSV,3,3,11,28,09,293,50,29,00,228,,30,00,071,,,,,*41
$PGRMV,,,*72
$PGRME,,,,,,*4D
$GPVTG,,T,,M,,N,,K,N*2C
$PGRMF,,,,,,,,,,A,0,,,,*13
$LCGLL,,,,,005536,V,N
$LCVTG,,T,,M,,N,,K,N
$PGRMB,-1.0,0,-1,0,,K*1F
$GPRMC,005538,V,0000.0000,N,00000.0000,W,000.0,000.0,290905,007.2,W,N*0A
$GPGGA,005538,0000.0000,N,00000.0000,W,0,00,,,M,,M,,*44
$GPGSA,A,1,,,,,,,,,,,,,,,*1E
$GPGSV,3,1,11,02,00,250,49,04,00,280,51,06,00,151,,07,00,322,50*7B
$GPGSV,3,2,11,08,00,243,36,09,00,347,52,10,00,204,,24,00,311,50*79
$GPGSV,3,3,11,28,09,293,50,29,00,228,,30,00,071,,,,,*41
$PGRMV,,,*72
$PGRME,,,,,,*4D
$GPVTG,,T,,M,,N,,K,N*2C
$PGRMF,,,,,,,,,,A,0,,,,*13
$LCGLL,,,,,005538,V,N
$LCVTG,,T,,M,,N,,K,N
$PGRMB,-1.0,0,-1,0,,K*1F
$GPRMC,005540,V,0000.0000,N,00000.0000,W,000.0,000.0,290905,007.2,W,N*05
$GPGGA,005540,0000.0000,N,00000.0000,W,0,00,,,M,,M,,*4B
$GPGSA,A,1,,,,,,,,,,,,,,,*1E
$GPGSV,3,1,11,02,00,250,49,04,00,281,51,06,00,151,,07,00,322,50*7A
$GPGSV,3,2,11,08,00,243,36,09,00,347,52,10,00,204,,24,00,311,50*79
$GPGSV,3,3,11,28,09,293,50,29,00,228,,30,00,071,,,,,*41
$PGRMV,,,*72
$PGRME,,,,,,*4D
$GPVTG,,T,,M,,N,,K,N*2C
$PGRMF,,,,,,,,,,A,0,,,,*13
$LCGLL,,,,,005540,V,N
$LCVTG,,T,,M,,N,,K,N
$PGRMB,-1.0,0,-1,0,,K*1F
$GPRMC,005542,V,0000.0000,N,00000.0000,W,000.0,000.0,290905,007.2,W,N*07
$GPGGA,005542,0000.0000,N,00000.0000,W,0,00,,,M,,M,,*49
$GPGSA,A,1,,,,,,,,,,,,,,,*1E
$GPGSV,3,1,11,02,00,250,49,04,00,281,51,06,00,151,,07,00,322,50*7A
$GPGSV,3,2,11,08,00,243,36,09,00,347,52,10,00,204,,24,00,311,50*79
$GPGSV,3,3,11,28,09,293,50,29,00,228,,30,00,071,,,,,*41
$PGRMV,,,*72
$PGRME,,,,,,*4D
$GPVTG,,T,,M,,N,,K,N*2C
$PGRMF,,,,,,,,,,A,0,,,,*13
$LCGLL,,,,,005542,V,N
$LCVTG,,T,,M,,N,,K,N
$PGRMB,-1.0,0,-1,0,,K*1F
$GPRMC,005544,V,0000.0000,N,00000.0000,W,000.0,000.0,290905,007.2,W,N*01
$GPGGA,005544,0000.0000,N,00000.0000,W,0,00,,,M,,M,,*4F
$GPGSA,A,1,,,,,,,,,,,,,,,*1E
$GPGSV,3,1,11,02,00,250,49,04,00,281,51,06,00,151,,07,00,322,50*7A
$GPGSV,3,2,11,08,00,243,36,09,00,347,52,10,00,204,,24,00,311,50*79
$GPGSV,3,3,11,28,09,293,50,29,00,228,,30,00,071,,,,,*41
$PGRMV,,,*72
$PGRME,,,,,,*4D
$GPVTG,,T,,M,,N,,K,N*2C
$PGRMF,,,,,,,,,,A,0,,,,*13
$LCGLL,,,,,005544,V,N
$LCVTG,,T,,M,,N,,K,N
$PGRMB,-1.0,0,-1,0,,K*1F
$GPRMC,005546,V,0000.0000,N,00000.0000,W,000.0,000.0,290905,007.2,W,N*03
$GPGGA,005546,0000.0000,N,00000.0000,W,0,00,,,M,,M,,*4D
$GPGSA,A,1,,,,,,,,,,,,,,,*1E
$GPGSV,3,1,11,02,00,250,49,04,00,281,51,06,00,151,,07,00,322,50*7A
$GPGSV,3,2,11,08,00,243,36,09,00,347,52,10,00,204,,24,00,311,50*79
$GPGSV,3,3,11,28,09,293,50,29,00,228,,30,00,071,,,,,*41
$PGRMV,,,*72
$PGRME,,,,,,*4D
$GPVTG,,T,,M,,N,,K,N*2C
$PGRMF,,,,,,,,,,A,0,,,,*13
$LCGLL,,,,,005546,V,N
$LCVTG,,T,,M,,N,,K,N
$PGRMB,-1.0,0,-1,0,,K*1F




More information about the aprssig mailing list